Time;durP1;ratioP1;P1;durP2;ratioP2;P2;SDS_P1;SDS_P2;PMS_P1;PMS_P2;Temp;Humidity;BMP_temperature;BMP_pressure;BME280_temperature;BME280_humidity;BME280_pressure;Samples;Min_cycle;Max_cycle;Signal;HPM_P1;HPM_P2
2024/03/22 00:01:01;;;;;;;1.50;1.00;;;11.60;98.20;;;;;;4881233;29;20612;-80
2024/03/22 00:03:29;;;;;;;1.50;1.00;;;11.60;98.20;;;;;;4883382;29;20502;-80
2024/03/22 00:05:56;;;;;;;1.50;1.10;;;11.60;98.20;;;;;;4881573;29;20210;-80
2024/03/22 00:08:23;;;;;;;1.50;1.00;;;11.60;98.20;;;;;;4880307;29;20502;-80
2024/03/22 00:10:49;;;;;;;1.50;1.20;;;11.50;98.20;;;;;;4880858;29;20474;-80
2024/03/22 00:13:16;;;;;;;1.43;1.00;;;11.50;98.20;;;;;;4880835;29;20470;-81
2024/03/22 00:15:44;;;;;;;1.50;1.00;;;11.50;98.20;;;;;;4879014;29;20214;-80
2024/03/22 00:18:10;;;;;;;1.70;1.57;;;11.50;98.20;;;;;;4878559;29;21763;-80
2024/03/22 00:20:36;;;;;;;1.50;1.07;;;11.50;98.20;;;;;;4879826;29;20589;-80
2024/03/22 00:23:05;;;;;;;1.50;1.17;;;11.50;98.20;;;;;;4879324;29;20553;-80
2024/03/22 00:25:31;;;;;;;1.43;1.00;;;11.50;98.20;;;;;;4878371;29;20222;-80
2024/03/22 00:27:58;;;;;;;1.47;1.00;;;11.50;98.20;;;;;;4883417;29;20519;-80
2024/03/22 00:30:24;;;;;;;1.50;1.00;;;11.40;98.20;;;;;;4881211;29;20466;-81
2024/03/22 00:32:51;;;;;;;1.50;1.10;;;11.40;98.20;;;;;;4880962;29;20561;-79
2024/03/22 00:35:16;;;;;;;1.50;1.00;;;11.40;98.20;;;;;;4879611;29;20214;-80
2024/03/22 00:37:43;;;;;;;1.50;1.00;;;11.40;98.20;;;;;;4880720;29;20833;-80
2024/03/22 00:40:11;;;;;;;1.50;1.03;;;11.40;98.20;;;;;;4879131;29;20268;-80
2024/03/22 00:42:38;;;;;;;1.50;1.00;;;11.40;98.20;;;;;;4879484;29;20474;-80
2024/03/22 00:45:05;;;;;;;1.50;1.07;;;11.40;98.20;;;;;;4879357;29;20470;-80
2024/03/22 00:47:31;;;;;;;1.50;1.00;;;11.40;98.20;;;;;;4879846;29;20498;-80
2024/03/22 00:49:58;;;;;;;1.50;1.10;;;11.50;98.20;;;;;;4878603;29;20569;-81
2024/03/22 00:52:25;;;;;;;1.50;1.07;;;11.50;98.20;;;;;;4878338;29;20471;-80
2024/03/22 00:54:51;;;;;;;1.50;1.10;;;11.50;98.20;;;;;;4879704;29;20467;-80
2024/03/22 00:57:19;;;;;;;1.50;1.00;;;11.50;98.20;;;;;;4878956;29;20538;-80
2024/03/22 00:59:45;;;;;;;1.50;1.00;;;11.50;98.20;;;;;;4879133;29;20230;-80
2024/03/22 01:02:12;;;;;;;1.50;1.00;;;11.50;98.20;;;;;;4878618;29;20494;-80
2024/03/22 01:04:37;;;;;;;1.50;1.00;;;11.50;98.20;;;;;;4878595;29;20224;-80
2024/03/22 01:07:04;;;;;;;1.50;1.10;;;11.50;98.20;;;;;;4883048;29;20941;-80
2024/03/22 01:09:30;;;;;;;1.50;1.10;;;11.50;98.20;;;;;;4878880;29;20668;-79
2024/03/22 01:11:57;;;;;;;1.43;1.00;;;11.50;98.20;;;;;;4879407;29;20466;-79
2024/03/22 01:14:24;;;;;;;1.50;1.10;;;11.50;98.20;;;;;;4878735;29;20566;-79
2024/03/22 01:16:51;;;;;;;1.50;1.10;;;11.50;98.20;;;;;;4879510;29;20471;-80
2024/03/22 01:19:17;;;;;;;1.50;1.00;;;11.50;98.20;;;;;;4879210;29;20593;-79
2024/03/22 01:21:43;;;;;;;1.50;1.10;;;11.60;98.20;;;;;;4878815;29;20550;-79
2024/03/22 01:24:09;;;;;;;1.50;1.10;;;11.60;98.20;;;;;;4879764;29;20403;-80
2024/03/22 01:26:36;;;;;;;1.50;1.00;;;11.60;98.20;;;;;;4878622;29;20566;-79
2024/03/22 01:29:02;;;;;;;1.50;1.00;;;11.60;98.20;;;;;;4879382;29;20277;-80
2024/03/22 01:31:30;;;;;;;1.50;1.10;;;11.60;98.20;;;;;;4880089;29;20466;-79
2024/03/22 01:33:56;;;;;;;1.43;1.00;;;11.60;98.20;;;;;;4879523;29;20681;-79
2024/03/22 01:36:23;;;;;;;1.50;1.03;;;11.60;98.20;;;;;;4878870;29;20569;-80
2024/03/22 01:38:48;;;;;;;1.50;1.20;;;11.60;98.20;;;;;;4880093;29;20241;-79
2024/03/22 01:41:15;;;;;;;1.47;1.00;;;11.60;98.20;;;;;;4878469;29;21374;-81
2024/03/22 01:43:41;;;;;;;1.50;1.10;;;11.60;98.20;;;;;;4879776;29;20220;-79
2024/03/22 01:46:09;;;;;;;1.50;1.00;;;11.60;98.20;;;;;;4880071;29;21036;-79
2024/03/22 01:48:36;;;;;;;1.50;1.07;;;11.60;98.20;;;;;;4876307;29;20242;-79
2024/03/22 01:51:04;;;;;;;1.47;0.90;;;11.60;98.20;;;;;;4877174;29;21108;-79
2024/03/22 01:53:31;;;;;;;1.50;1.10;;;11.50;98.20;;;;;;4877233;29;20564;-79
2024/03/22 01:55:57;;;;;;;1.50;1.07;;;11.60;98.20;;;;;;4875052;29;20939;-79
2024/03/22 01:58:23;;;;;;;1.50;1.10;;;11.50;98.20;;;;;;4876188;29;21155;-80
2024/03/22 02:00:50;;;;;;;1.47;1.00;;;11.50;98.20;;;;;;4876973;29;20580;-79
2024/03/22 02:03:16;;;;;;;1.43;1.00;;;11.50;98.20;;;;;;4875830;29;20293;-80
2024/03/22 02:05:44;;;;;;;1.50;1.10;;;11.50;98.20;;;;;;4875626;29;20570;-79
2024/03/22 02:08:10;;;;;;;1.50;1.17;;;11.50;98.20;;;;;;4881097;29;20229;-79
2024/03/22 02:10:37;;;;;;;1.47;1.00;;;11.50;98.20;;;;;;4877739;29;21144;-79
2024/03/22 02:13:03;;;;;;;1.50;1.00;;;11.50;98.20;;;;;;4877249;29;20309;-80
2024/03/22 02:15:30;;;;;;;1.50;1.00;;;11.50;98.20;;;;;;4868758;29;20482;-79
2024/03/22 02:17:55;;;;;;;1.50;1.10;;;11.50;98.20;;;;;;4875901;29;20466;-79
2024/03/22 02:20:22;;;;;;;1.50;1.07;;;11.50;98.20;;;;;;4875196;29;20593;-79
2024/03/22 02:22:49;;;;;;;1.50;1.00;;;11.50;98.20;;;;;;4875639;29;20269;-79
2024/03/22 02:25:17;;;;;;;1.50;1.10;;;11.50;98.20;;;;;;4876056;29;20486;-79
2024/03/22 02:27:43;;;;;;;1.50;1.00;;;11.50;98.20;;;;;;4876078;29;20858;-79
2024/03/22 02:30:10;;;;;;;1.47;1.00;;;11.50;98.20;;;;;;4874169;29;20490;-80
2024/03/22 02:32:37;;;;;;;1.50;1.10;;;11.50;98.20;;;;;;4875852;29;20256;-79
2024/03/22 02:35:04;;;;;;;1.50;1.10;;;11.50;98.20;;;;;;4879119;29;20482;-80
2024/03/22 02:37:31;;;;;;;1.47;1.00;;;11.50;98.20;;;;;;4876117;29;20496;-80
2024/03/22 02:39:58;;;;;;;1.50;1.00;;;11.50;98.20;;;;;;4876687;29;20482;-80
2024/03/22 02:42:26;;;;;;;1.50;1.00;;;11.50;98.20;;;;;;4877542;29;20466;-81
2024/03/22 02:44:53;;;;;;;1.50;1.10;;;11.50;98.20;;;;;;4876833;29;20480;-79
2024/03/22 02:47:18;;;;;;;1.50;1.10;;;11.50;98.20;;;;;;4876014;29;20475;-80
2024/03/22 02:49:45;;;;;;;1.50;1.00;;;11.50;98.20;;;;;;4877123;29;21044;-79
2024/03/22 02:52:11;;;;;;;1.50;1.30;;;11.50;98.20;;;;;;4874652;29;20206;-80
2024/03/22 02:54:38;;;;;;;1.50;1.00;;;11.50;98.20;;;;;;4877007;29;20477;-79
2024/03/22 02:57:04;;;;;;;1.50;1.10;;;11.50;98.20;;;;;;4876595;29;20218;-79
2024/03/22 02:59:32;;;;;;;1.50;1.00;;;11.60;98.20;;;;;;4878653;29;20502;-80
2024/03/22 03:01:58;;;;;;;1.50;1.00;;;11.50;98.20;;;;;;4879700;29;20519;-81
2024/03/22 03:04:25;;;;;;;1.50;1.00;;;11.50;98.20;;;;;;4878942;29;20470;-79
2024/03/22 03:06:51;;;;;;;1.50;1.00;;;11.50;98.20;;;;;;4880351;29;20214;-81
2024/03/22 03:09:18;;;;;;;1.50;1.13;;;11.50;98.20;;;;;;4880509;29;20663;-80
2024/03/22 03:11:43;;;;;;;1.50;1.10;;;11.50;98.20;;;;;;4880200;29;20235;-80
2024/03/22 03:14:10;;;;;;;1.50;1.00;;;11.50;98.20;;;;;;4880142;29;20467;-79
2024/03/22 03:16:37;;;;;;;1.47;1.10;;;11.50;98.20;;;;;;4878620;29;20689;-84
2024/03/22 03:19:04;;;;;;;1.43;1.00;;;11.50;98.20;;;;;;4879032;29;20486;-80
2024/03/22 03:21:30;;;;;;;1.47;1.00;;;11.50;98.20;;;;;;4877818;29;20558;-81
2024/03/22 03:23:57;;;;;;;1.47;1.00;;;11.40;98.20;;;;;;4875092;29;20466;-80
2024/03/22 03:26:22;;;;;;;1.50;1.00;;;11.40;98.20;;;;;;4877612;29;20205;-80
2024/03/22 03:28:49;;;;;;;1.47;0.90;;;11.40;98.20;;;;;;4876135;29;20942;-78
2024/03/22 03:31:15;;;;;;;1.50;1.10;;;11.40;98.20;;;;;;4875230;29;20214;-78
2024/03/22 03:33:43;;;;;;;1.50;1.00;;;11.40;98.20;;;;;;4876358;29;20578;-79
2024/03/22 03:36:09;;;;;;;1.50;1.00;;;11.30;98.20;;;;;;4876766;29;20217;-79
2024/03/22 03:38:37;;;;;;;3.00;2.80;;;11.30;98.20;;;;;;4878753;29;20502;-79
2024/03/22 03:41:03;;;;;;;1.50;1.00;;;11.30;98.20;;;;;;4875917;29;20226;-78
2024/03/22 03:43:30;;;;;;;1.50;1.17;;;11.20;98.20;;;;;;4872291;29;20470;-81
2024/03/22 03:45:56;;;;;;;1.47;1.00;;;11.20;98.20;;;;;;4876863;29;20542;-81
2024/03/22 03:48:22;;;;;;;1.50;1.00;;;11.20;98.20;;;;;;4878130;29;20513;-81
2024/03/22 03:50:54;;;;;;;1.50;1.10;;;11.20;98.20;;;;;;4879533;29;20289;-81
2024/03/22 03:53:21;;;;;;;1.53;1.40;;;11.20;98.20;;;;;;4878482;29;20478;-78
2024/03/22 03:55:47;;;;;;;1.50;1.10;;;11.20;98.20;;;;;;4881940;29;20557;-81
2024/03/22 03:58:14;;;;;;;1.50;1.00;;;11.20;98.20;;;;;;4878944;29;20561;-81
2024/03/22 04:00:40;;;;;;;1.50;1.10;;;11.20;98.20;;;;;;4879616;29;20230;-80
2024/03/22 04:03:06;;;;;;;1.50;0.90;;;11.20;98.20;;;;;;4878537;29;20481;-82
2024/03/22 04:05:32;;;;;;;1.50;1.00;;;11.20;98.20;;;;;;4882154;29;20222;-80
2024/03/22 04:08:00;;;;;;;1.50;1.00;;;11.10;98.20;;;;;;4880176;29;20498;-82
2024/03/22 04:10:26;;;;;;;1.50;1.10;;;11.10;98.20;;;;;;4882000;29;21713;-81
2024/03/22 04:12:53;;;;;;;1.50;1.10;;;11.10;98.20;;;;;;4878311;29;20542;-80
2024/03/22 04:15:19;;;;;;;1.50;1.00;;;11.00;98.20;;;;;;4878300;29;20214;-81
2024/03/22 04:17:46;;;;;;;1.50;1.10;;;11.00;98.20;;;;;;4880221;29;20570;-81
2024/03/22 04:20:12;;;;;;;1.50;1.00;;;11.00;98.20;;;;;;4877402;29;20585;-82
2024/03/22 04:22:39;;;;;;;1.50;1.10;;;10.90;98.20;;;;;;4878857;29;22627;-81
2024/03/22 04:25:08;;;;;;;1.50;1.10;;;10.90;98.20;;;;;;4878405;29;20477;-81
2024/03/22 04:27:37;;;;;;;1.50;1.10;;;10.90;98.20;;;;;;4878906;29;20481;-79
2024/03/22 04:30:03;;;;;;;1.50;1.10;;;10.80;98.20;;;;;;4882384;29;21013;-83
2024/03/22 04:32:30;;;;;;;1.50;1.10;;;10.80;98.20;;;;;;4882752;29;20534;-79
2024/03/22 04:34:56;;;;;;;1.70;1.40;;;10.80;98.20;;;;;;4882799;29;20467;-81
2024/03/22 04:37:23;;;;;;;1.50;1.10;;;10.80;98.20;;;;;;4882690;29;20565;-82
2024/03/22 04:39:50;;;;;;;1.50;1.00;;;10.80;98.20;;;;;;4883413;29;20781;-82
2024/03/22 04:42:19;;;;;;;1.50;1.10;;;10.70;98.20;;;;;;4881867;29;20581;-81
2024/03/22 04:44:46;;;;;;;1.50;1.10;;;10.70;98.20;;;;;;4876855;29;20507;-80
2024/03/22 04:47:12;;;;;;;1.50;1.00;;;10.70;98.20;;;;;;4879733;29;20480;-81
2024/03/22 04:49:38;;;;;;;1.50;1.10;;;10.70;98.20;;;;;;4881629;29;21036;-80
2024/03/22 04:52:05;;;;;;;1.50;1.10;;;10.70;98.20;;;;;;4881828;29;20218;-79
2024/03/22 04:54:32;;;;;;;1.50;1.10;;;10.70;98.20;;;;;;4881166;29;20530;-83
2024/03/22 04:56:57;;;;;;;1.50;1.10;;;10.70;98.20;;;;;;4881573;29;20474;-81
2024/03/22 04:59:26;;;;;;;1.50;1.10;;;10.70;98.20;;;;;;4880058;29;20920;-81
2024/03/22 05:01:51;;;;;;;1.50;1.00;;;10.80;98.20;;;;;;4878917;29;20297;-83
2024/03/22 05:04:18;;;;;;;1.50;1.10;;;10.80;98.20;;;;;;4881224;29;20504;-82
2024/03/22 05:06:44;;;;;;;1.50;1.10;;;10.80;98.20;;;;;;4881244;29;20766;-82
2024/03/22 05:09:11;;;;;;;1.50;1.00;;;10.80;98.20;;;;;;4880092;29;20581;-81
2024/03/22 05:11:37;;;;;;;1.50;1.07;;;10.90;98.20;;;;;;4879286;29;20222;-79
2024/03/22 05:14:04;;;;;;;1.50;1.10;;;10.90;98.20;;;;;;4882929;29;20483;-81
2024/03/22 05:16:31;;;;;;;1.50;1.17;;;10.90;98.20;;;;;;4881231;29;20214;-81
2024/03/22 05:18:58;;;;;;;1.50;1.10;;;10.90;98.20;;;;;;4880868;29;20498;-80
2024/03/22 05:21:23;;;;;;;1.50;1.10;;;11.00;98.20;;;;;;4879920;29;21051;-79
2024/03/22 05:23:50;;;;;;;1.50;1.10;;;11.00;98.20;;;;;;4876922;29;20466;-79
2024/03/22 05:26:18;;;;;;;1.50;1.00;;;11.00;98.20;;;;;;4878929;29;20600;-80
2024/03/22 05:28:45;;;;;;;1.50;1.00;;;11.00;98.20;;;;;;4879855;29;20513;-82
2024/03/22 05:31:10;;;;;;;1.50;1.10;;;11.10;98.20;;;;;;4879925;29;20541;-82
2024/03/22 05:33:38;;;;;;;1.50;1.00;;;11.10;98.20;;;;;;4878884;29;20570;-78
2024/03/22 05:36:05;;;;;;;1.50;1.10;;;11.10;98.20;;;;;;4874685;29;20222;-79
2024/03/22 05:38:32;;;;;;;1.50;1.10;;;11.10;98.20;;;;;;4878177;29;20498;-78
2024/03/22 05:40:58;;;;;;;1.50;1.10;;;11.10;98.20;;;;;;4884277;29;20516;-81
2024/03/22 05:43:25;;;;;;;1.50;1.00;;;11.10;98.20;;;;;;4879460;29;20496;-84
2024/03/22 05:45:50;;;;;;;1.50;1.10;;;11.10;98.20;;;;;;4878983;29;20513;-79
2024/03/22 05:48:17;;;;;;;1.50;1.10;;;11.10;98.20;;;;;;4877647;29;20526;-81
2024/03/22 05:50:45;;;;;;;1.50;1.10;;;11.10;98.20;;;;;;4880714;29;20282;-81
2024/03/22 05:53:11;;;;;;;1.50;1.03;;;11.10;98.20;;;;;;4879269;29;20537;-82
2024/03/22 05:55:38;;;;;;;1.50;1.20;;;11.20;98.20;;;;;;4879768;29;20466;-81
2024/03/22 05:58:05;;;;;;;1.50;1.20;;;11.20;98.20;;;;;;4880289;29;20516;-81
2024/03/22 06:00:31;;;;;;;1.50;1.03;;;11.20;98.20;;;;;;4881041;29;20482;-80
2024/03/22 06:02:58;;;;;;;1.50;1.10;;;11.30;98.20;;;;;;4883290;29;20505;-79
2024/03/22 06:05:24;;;;;;;1.50;1.10;;;11.30;98.20;;;;;;4880362;29;20474;-80
2024/03/22 06:07:52;;;;;;;1.50;1.20;;;11.40;98.20;;;;;;4877424;29;20466;-78
2024/03/22 06:10:18;;;;;;;1.50;1.00;;;11.40;98.20;;;;;;4877162;29;20281;-78
2024/03/22 06:12:47;;;;;;;1.50;1.00;;;11.50;98.20;;;;;;4878138;29;20490;-79
2024/03/22 06:15:12;;;;;;;1.50;1.00;;;11.50;98.20;;;;;;4877467;29;20217;-79
2024/03/22 06:17:39;;;;;;;1.50;1.00;;;11.60;98.20;;;;;;4880897;29;20971;-79
2024/03/22 06:20:06;;;;;;;1.50;1.03;;;11.60;98.20;;;;;;4879867;29;21202;-78
2024/03/22 06:22:33;;;;;;;1.50;1.00;;;11.60;98.20;;;;;;4876957;29;20498;-79
2024/03/22 06:25:00;;;;;;;1.50;1.10;;;11.70;98.20;;;;;;4877496;29;20955;-79
2024/03/22 06:27:27;;;;;;;1.50;1.13;;;11.70;98.20;;;;;;4877579;29;20502;-78
2024/03/22 06:29:53;;;;;;;1.50;1.00;;;11.80;98.20;;;;;;4877484;29;20966;-80
2024/03/22 06:32:20;;;;;;;1.50;1.00;;;11.80;98.20;;;;;;4877215;29;20466;-80
2024/03/22 06:34:48;;;;;;;1.50;1.00;;;11.90;98.20;;;;;;4876861;29;20749;-79
2024/03/22 06:37:21;;;;;;;1.50;1.10;;;12.00;98.20;;;;;;4878514;29;20462;-79
2024/03/22 06:39:47;;;;;;;1.50;1.00;;;12.10;98.20;;;;;;4876800;29;20494;-78
2024/03/22 06:42:15;;;;;;;1.50;1.03;;;12.20;98.20;;;;;;4876349;29;20589;-80
2024/03/22 06:44:41;;;;;;;1.50;1.10;;;12.40;98.20;;;;;;4876799;29;20210;-80
2024/03/22 06:47:08;;;;;;;1.50;1.00;;;12.50;98.20;;;;;;4877562;29;21002;-79
2024/03/22 06:49:34;;;;;;;1.50;1.00;;;12.60;98.20;;;;;;4877226;29;20597;-78
2024/03/22 06:52:01;;;;;;;1.50;1.00;;;12.70;98.20;;;;;;4876688;29;20558;-79
2024/03/22 06:54:26;;;;;;;1.60;1.40;;;12.80;98.20;;;;;;4875887;29;20358;-79
2024/03/22 06:56:53;;;;;;;1.50;1.00;;;12.90;98.20;;;;;;4872821;29;20479;-78
2024/03/22 06:59:20;;;;;;;1.50;1.00;;;13.00;98.20;;;;;;4876704;29;20229;-81
2024/03/22 07:01:47;;;;;;;1.50;0.90;;;13.10;98.20;;;;;;4876032;29;20486;-79
2024/03/22 07:04:13;;;;;;;1.50;1.00;;;13.20;98.20;;;;;;4874296;29;21424;-77
2024/03/22 07:06:41;;;;;;;1.50;1.00;;;13.30;98.20;;;;;;4878385;29;20474;-79
2024/03/22 07:09:07;;;;;;;1.50;1.00;;;13.40;98.20;;;;;;4875948;29;20493;-77
2024/03/22 07:11:34;;;;;;;1.50;1.00;;;13.50;98.20;;;;;;4874509;29;20471;-77
2024/03/22 07:14:00;;;;;;;1.50;1.00;;;13.70;98.20;;;;;;4875336;29;20309;-78
2024/03/22 07:16:28;;;;;;;1.50;1.10;;;13.80;98.20;;;;;;4870883;29;20566;-78
2024/03/22 07:18:54;;;;;;;1.50;1.13;;;13.90;98.20;;;;;;4876218;29;20258;-78
2024/03/22 07:21:21;;;;;;;1.50;0.93;;;14.00;98.20;;;;;;4874496;29;20537;-78
2024/03/22 07:23:47;;;;;;;1.50;1.00;;;14.10;98.20;;;;;;4873693;29;20647;-78
2024/03/22 07:26:13;;;;;;;1.50;1.00;;;14.10;98.20;;;;;;4876731;29;20557;-78
2024/03/22 07:28:39;;;;;;;1.50;1.00;;;14.10;98.20;;;;;;4876804;29;20230;-78
2024/03/22 07:31:06;;;;;;;1.50;1.00;;;14.10;98.20;;;;;;4875593;29;20562;-79
2024/03/22 07:33:33;;;;;;;1.50;1.00;;;14.10;98.20;;;;;;4878390;29;20465;-79
2024/03/22 07:36:03;;;;;;;1.50;1.00;;;14.10;98.20;;;;;;4875537;29;20485;-79
2024/03/22 07:38:28;;;;;;;1.50;1.00;;;14.20;98.20;;;;;;4878447;29;20490;-80
2024/03/22 07:40:55;;;;;;;1.50;1.00;;;14.20;98.20;;;;;;4879900;29;20569;-81
2024/03/22 07:43:21;;;;;;;1.50;1.00;;;14.30;98.20;;;;;;4879276;29;20315;-82
2024/03/22 07:45:48;;;;;;;8.23;1.90;;;14.40;98.20;;;;;;4877518;29;20478;-79
2024/03/22 07:48:14;;;;;;;1.50;0.97;;;14.50;98.20;;;;;;4878117;29;20608;-79
2024/03/22 07:50:42;;;;;;;1.50;1.00;;;14.50;98.20;;;;;;4877879;29;20528;-79
2024/03/22 07:53:09;;;;;;;1.50;1.00;;;14.60;98.20;;;;;;4877974;29;20882;-80
2024/03/22 07:55:35;;;;;;;1.50;1.00;;;14.70;98.20;;;;;;4879474;29;20470;-79
2024/03/22 07:58:02;;;;;;;1.50;1.10;;;14.80;98.20;;;;;;4878992;29;20481;-78
2024/03/22 08:00:29;;;;;;;1.50;1.00;;;14.90;98.20;;;;;;4878789;29;20505;-79
2024/03/22 08:02:55;;;;;;;1.60;1.10;;;15.00;98.20;;;;;;4878594;29;20498;-78
2024/03/22 08:05:21;;;;;;;1.50;1.00;;;15.10;98.20;;;;;;4884216;29;21056;-78
2024/03/22 08:07:49;;;;;;;1.50;0.97;;;15.20;98.20;;;;;;4879487;29;20316;-78
2024/03/22 08:10:16;;;;;;;3.30;2.33;;;15.30;98.20;;;;;;4878958;29;20924;-78
2024/03/22 08:12:42;;;;;;;1.50;1.00;;;15.40;98.20;;;;;;4880499;29;20484;-80
2024/03/22 08:15:09;;;;;;;1.50;1.00;;;15.50;98.20;;;;;;4884835;29;20534;-81
2024/03/22 08:17:35;;;;;;;1.50;0.90;;;15.60;98.20;;;;;;4881868;29;20480;-79
2024/03/22 08:20:02;;;;;;;1.50;1.00;;;15.80;98.20;;;;;;4881503;29;20581;-78
2024/03/22 08:22:28;;;;;;;1.50;0.90;;;15.90;98.20;;;;;;4879972;29;20328;-79
2024/03/22 08:24:56;;;;;;;1.50;1.00;;;16.00;98.20;;;;;;4881404;29;20497;-81
2024/03/22 08:27:22;;;;;;;1.50;1.03;;;16.10;98.20;;;;;;4881279;29;20233;-79
2024/03/22 08:29:49;;;;;;;1.50;0.90;;;16.10;98.20;;;;;;4879613;29;20494;-82
2024/03/22 08:32:15;;;;;;;1.50;1.00;;;16.10;98.20;;;;;;4881948;29;20206;-80
2024/03/22 08:34:42;;;;;;;1.50;0.93;;;16.20;98.20;;;;;;4881488;29;20508;-80
2024/03/22 08:37:09;;;;;;;1.50;0.90;;;16.20;98.20;;;;;;4879212;29;20662;-82
2024/03/22 08:39:35;;;;;;;1.50;1.00;;;16.10;98.20;;;;;;4883981;29;20498;-81
2024/03/22 08:42:05;;;;;;;1.60;1.40;;;16.20;98.20;;;;;;4881988;29;20490;-81
2024/03/22 08:44:31;;;;;;;2.40;2.20;;;16.10;98.20;;;;;;4881730;29;20533;-81
2024/03/22 08:46:58;;;;;;;1.50;0.90;;;16.10;98.20;;;;;;4879669;29;20485;-79
2024/03/22 08:49:24;;;;;;;1.50;0.90;;;16.10;98.20;;;;;;4877931;29;20486;-77
2024/03/22 08:51:50;;;;;;;1.50;1.00;;;16.10;98.20;;;;;;4878474;29;20458;-78
2024/03/22 08:54:17;;;;;;;1.50;0.90;;;16.20;98.20;;;;;;4878546;29;20481;-79
2024/03/22 08:56:43;;;;;;;1.50;1.00;;;16.20;98.20;;;;;;4879553;29;20218;-79
2024/03/22 08:59:12;;;;;;;1.50;1.00;;;16.30;98.20;;;;;;4878059;29;20497;-78
2024/03/22 09:01:38;;;;;;;1.50;0.90;;;16.50;98.20;;;;;;4875614;29;20229;-78
2024/03/22 09:04:04;;;;;;;1.50;0.90;;;16.60;98.20;;;;;;4878929;29;20474;-78
2024/03/22 09:06:31;;;;;;;1.50;1.03;;;16.70;98.20;;;;;;4873858;29;20214;-79
2024/03/22 09:08:57;;;;;;;1.50;0.90;;;16.80;98.20;;;;;;4874462;29;20601;-79
2024/03/22 09:11:24;;;;;;;1.50;1.00;;;16.80;98.20;;;;;;4875965;29;20769;-79
2024/03/22 09:13:53;;;;;;;1.50;0.90;;;16.90;98.20;;;;;;4874076;29;20955;-78
2024/03/22 09:16:20;;;;;;;1.50;1.00;;;16.90;98.20;;;;;;4873695;29;20477;-79
2024/03/22 09:18:47;;;;;;;1.50;0.90;;;17.00;98.20;;;;;;4871663;29;21179;-79
2024/03/22 09:21:13;;;;;;;1.50;0.90;;;17.10;98.20;;;;;;4868375;29;20492;-77
2024/03/22 09:23:40;;;;;;;1.67;1.17;;;17.20;98.20;;;;;;4869382;29;20486;-78
2024/03/22 09:26:05;;;;;;;1.50;1.00;;;17.20;98.20;;;;;;4870667;29;20244;-76
2024/03/22 09:28:33;;;;;;;1.60;1.20;;;17.20;98.20;;;;;;4868931;29;20523;-77
2024/03/22 09:31:03;;;;;;;1.50;0.90;;;17.30;98.20;;;;;;4871404;29;20269;-79
2024/03/22 09:33:32;;;;;;;1.50;0.90;;;17.30;98.20;;;;;;4872094;29;20521;-79
2024/03/22 09:35:58;;;;;;;4.67;3.47;;;17.30;98.20;;;;;;4872672;29;20506;-78
2024/03/22 09:38:25;;;;;;;1.50;1.00;;;17.30;98.20;;;;;;4877087;29;20486;-78
2024/03/22 09:40:54;;;;;;;1.50;1.00;;;17.40;98.20;;;;;;4874216;29;20648;-79
2024/03/22 09:43:21;;;;;;;1.50;1.00;;;17.40;98.20;;;;;;4870417;29;20566;-78
2024/03/22 09:45:49;;;;;;;1.50;0.90;;;17.50;98.20;;;;;;4873971;29;20474;-79
2024/03/22 09:48:17;;;;;;;1.50;0.90;;;17.50;98.20;;;;;;4872574;29;20491;-81
2024/03/22 09:50:47;;;;;;;1.50;0.93;;;17.50;98.20;;;;;;4873026;29;20475;-79
2024/03/22 09:53:14;;;;;;;1.50;0.90;;;17.60;98.20;;;;;;4871048;29;20493;-80
2024/03/22 09:55:43;;;;;;;1.50;0.90;;;17.70;98.20;;;;;;4872887;29;20549;-80
2024/03/22 09:58:10;;;;;;;1.50;0.90;;;17.80;98.20;;;;;;4872826;29;21118;-78
2024/03/22 10:00:36;;;;;;;1.50;0.90;;;17.90;98.20;;;;;;4873640;29;21006;-78
2024/03/22 10:03:05;;;;;;;1.50;0.90;;;18.00;98.20;;;;;;4872834;29;20494;-78
2024/03/22 10:05:31;;;;;;;1.50;0.90;;;18.00;98.20;;;;;;4870568;29;20233;-78
2024/03/22 10:08:00;;;;;;;1.50;1.00;;;18.00;98.20;;;;;;4873147;29;21008;-78
2024/03/22 10:10:26;;;;;;;1.50;0.90;;;17.90;98.20;;;;;;4871784;29;20470;-79
2024/03/22 10:12:53;;;;;;;1.50;1.00;;;17.80;98.20;;;;;;4871117;29;21029;-80
2024/03/22 10:15:19;;;;;;;1.50;0.90;;;17.80;98.20;;;;;;4870693;29;20894;-80
2024/03/22 10:17:46;;;;;;;1.50;0.90;;;17.70;98.20;;;;;;4872436;29;20558;-78
2024/03/22 10:20:13;;;;;;;1.50;0.90;;;17.60;98.20;;;;;;4871295;29;20621;-79
2024/03/22 10:22:49;;;;;;;1.50;0.90;;;17.60;98.20;;;;;;4874187;29;21195;-79
2024/03/22 10:25:16;;;;;;;1.43;0.90;;;17.50;98.20;;;;;;4873649;29;20482;-79
2024/03/22 10:27:43;;;;;;;1.47;0.90;;;17.50;98.20;;;;;;4874959;29;20510;-79
2024/03/22 10:30:10;;;;;;;1.47;0.90;;;17.50;98.20;;;;;;4872575;29;20486;-80
2024/03/22 10:32:37;;;;;;;1.50;0.90;;;17.50;98.20;;;;;;4870602;29;20481;-77
2024/03/22 10:35:05;;;;;;;1.50;0.90;;;17.50;98.20;;;;;;4872468;29;20589;-79
2024/03/22 10:37:33;;;;;;;1.50;0.90;;;17.60;98.20;;;;;;4875557;29;20542;-80
2024/03/22 10:40:07;;;;;;;1.43;0.90;;;17.70;98.20;;;;;;4872974;29;20498;-80
2024/03/22 10:42:35;;;;;;;1.43;0.90;;;17.70;98.20;;;;;;4873263;29;20530;-78
2024/03/22 10:45:02;;;;;;;1.50;1.10;;;17.80;98.20;;;;;;4874559;29;20823;-78
2024/03/22 10:47:34;;;;;;;1.50;0.90;;;17.80;98.20;;;;;;4875277;29;21063;-79
2024/03/22 10:50:05;;;;;;;1.50;0.90;;;17.80;98.20;;;;;;4877105;29;20502;-81
2024/03/22 10:52:35;;;;;;;1.50;0.90;;;17.80;98.20;;;;;;4878289;29;20470;-80
2024/03/22 10:55:04;;;;;;;1.50;0.90;;;17.70;98.20;;;;;;4884223;29;20477;-79
2024/03/22 10:57:31;;;;;;;1.43;0.80;;;17.70;98.20;;;;;;4876172;29;21073;-80
2024/03/22 10:59:59;;;;;;;1.50;0.90;;;17.60;98.20;;;;;;4876952;29;21088;-82
2024/03/22 11:02:29;;;;;;;1.47;0.90;;;17.60;98.20;;;;;;4878973;29;20506;-79
2024/03/22 11:04:57;;;;;;;1.50;0.90;;;17.50;98.20;;;;;;4878321;29;21157;-80
2024/03/22 11:07:29;;;;;;;1.50;0.90;;;17.50;98.20;;;;;;4875864;29;20474;-79
2024/03/22 11:09:57;;;;;;;1.50;0.90;;;17.40;98.20;;;;;;4878665;29;20522;-79
2024/03/22 11:12:26;;;;;;;1.50;0.90;;;17.40;98.20;;;;;;4871715;29;20481;-81
2024/03/22 11:14:53;;;;;;;1.50;0.90;;;17.20;98.20;;;;;;4874210;29;20474;-81
2024/03/22 11:17:24;;;;;;;1.47;0.90;;;17.10;98.20;;;;;;4874683;29;20557;-81
2024/03/22 11:19:50;;;;;;;1.47;0.90;;;17.10;98.20;;;;;;4872167;29;20494;-80
2024/03/22 11:22:18;;;;;;;1.50;0.90;;;17.00;98.20;;;;;;4872878;29;20565;-80
2024/03/22 11:24:44;;;;;;;1.50;0.90;;;17.00;98.20;;;;;;4875662;29;20482;-81
2024/03/22 11:27:26;;;;;;;1.47;0.90;;;17.10;98.20;;;;;;4879584;29;20481;-80
2024/03/22 11:29:54;;;;;;;1.47;0.93;;;17.00;98.20;;;;;;4872186;29;20529;-81
2024/03/22 11:32:24;;;;;;;1.50;0.90;;;17.00;98.20;;;;;;4875525;29;20573;-80
2024/03/22 11:34:51;;;;;;;1.50;0.90;;;17.10;98.20;;;;;;4872679;29;20506;-79
2024/03/22 11:37:17;;;;;;;1.50;1.20;;;17.00;98.20;;;;;;4875229;29;20484;-80
2024/03/22 11:39:43;;;;;;;1.90;1.33;;;17.10;98.20;;;;;;4875660;29;20522;-80
2024/03/22 11:42:11;;;;;;;1.47;0.90;;;17.30;98.20;;;;;;4878324;29;20542;-79
2024/03/22 11:44:40;;;;;;;1.50;0.90;;;17.40;98.20;;;;;;4876007;29;20965;-78
2024/03/22 11:47:07;;;;;;;1.47;1.00;;;17.50;98.20;;;;;;4875756;29;20537;-83
2024/03/22 11:49:36;;;;;;;1.50;0.90;;;17.60;98.20;;;;;;4877476;29;21025;-79
2024/03/22 11:52:03;;;;;;;1.50;0.90;;;17.70;98.20;;;;;;4877208;29;20530;-81
2024/03/22 11:54:30;;;;;;;1.50;1.10;;;17.70;98.20;;;;;;4876235;29;20478;-81
2024/03/22 11:56:56;;;;;;;1.47;0.90;;;17.70;98.20;;;;;;4877693;29;20478;-81
2024/03/22 11:59:23;;;;;;;1.50;0.90;;;17.70;98.20;;;;;;4878335;29;21213;-81
2024/03/22 12:01:50;;;;;;;1.90;1.50;;;17.80;98.20;;;;;;4877319;29;20474;-78
2024/03/22 12:04:20;;;;;;;1.47;0.90;;;17.90;98.20;;;;;;4874889;29;20501;-80
2024/03/22 12:06:48;;;;;;;1.43;0.90;;;17.90;98.20;;;;;;4877530;29;20569;-81
2024/03/22 12:09:15;;;;;;;1.50;0.90;;;18.00;98.20;;;;;;4881549;29;20508;-81
2024/03/22 12:11:41;;;;;;;1.50;1.00;;;18.00;98.20;;;;;;4875777;29;20480;-80
2024/03/22 12:14:08;;;;;;;1.70;1.10;;;18.10;98.20;;;;;;4876812;29;20478;-80
2024/03/22 12:16:36;;;;;;;1.60;1.40;;;18.00;97.30;;;;;;4878637;29;20482;-82
2024/03/22 12:19:03;;;;;;;1.47;0.90;;;18.00;97.20;;;;;;4879121;29;20502;-79
2024/03/22 12:21:30;;;;;;;2.70;2.50;;;18.00;96.90;;;;;;4876743;29;20873;-79
2024/03/22 12:23:58;;;;;;;1.43;0.90;;;18.00;97.00;;;;;;4876834;29;20505;-79
2024/03/22 12:26:24;;;;;;;1.50;0.90;;;17.90;96.50;;;;;;4876336;29;20470;-80
2024/03/22 12:28:51;;;;;;;1.50;1.00;;;17.90;96.80;;;;;;4876192;29;20496;-79
2024/03/22 12:31:18;;;;;;;1.50;0.90;;;17.80;96.60;;;;;;4876136;29;20566;-81
2024/03/22 12:33:45;;;;;;;1.50;1.00;;;17.90;97.20;;;;;;4880538;29;20470;-79
2024/03/22 12:36:12;;;;;;;1.50;0.90;;;17.90;97.50;;;;;;4880321;29;20510;-79
2024/03/22 12:38:39;;;;;;;1.50;0.90;;;18.00;97.10;;;;;;4878197;29;20497;-80
2024/03/22 12:41:07;;;;;;;1.50;1.00;;;18.10;97.30;;;;;;4880282;29;20499;-80
2024/03/22 12:43:34;;;;;;;1.47;0.90;;;18.10;97.50;;;;;;4877306;29;20501;-79
2024/03/22 12:46:00;;;;;;;1.43;0.90;;;18.00;97.70;;;;;;4878371;29;20474;-80